Time;durP1;ratioP1;P1;durP2;ratioP2;P2;SDS_P1;SDS_P2;PMS_P1;PMS_P2;Temp;Humidity;BMP_temperature;BMP_pressure;BME280_temperature;BME280_humidity;BME280_pressure;Samples;Min_cycle;Max_cycle;Signal;HPM_P1;HPM_P2
2022/06/01 00:00:41;;;;;;;4.18;1.40;;;14.10;59.80;;;;;;5040247;28;20120;-73
2022/06/01 00:03:07;;;;;;;1.35;1.20;;;14.10;60.00;;;;;;5027766;28;20044;-73
2022/06/01 00:05:33;;;;;;;3.90;1.17;;;14.10;60.00;;;;;;5021886;28;20033;-73
2022/06/01 00:07:58;;;;;;;3.20;1.17;;;14.10;60.10;;;;;;5015647;28;20037;-73
2022/06/01 00:10:24;;;;;;;1.80;1.25;;;14.00;60.30;;;;;;5025255;28;20060;-73
2022/06/01 00:12:50;;;;;;;1.63;1.27;;;14.00;60.40;;;;;;5009893;28;20040;-73
2022/06/01 00:15:16;;;;;;;1.98;1.27;;;13.90;60.50;;;;;;5029362;28;20803;-74
2022/06/01 00:17:42;;;;;;;2.15;1.40;;;13.80;61.40;;;;;;5006089;28;20425;-73
2022/06/01 00:20:08;;;;;;;2.53;1.40;;;13.80;60.90;;;;;;4994894;28;20037;-75
2022/06/01 00:22:33;;;;;;;1.55;1.30;;;13.70;60.90;;;;;;4999750;28;20041;-72
2022/06/01 00:24:59;;;;;;;2.45;1.27;;;13.70;61.10;;;;;;4993557;28;20047;-72
2022/06/01 00:27:24;;;;;;;2.53;1.35;;;13.60;61.20;;;;;;4988087;28;20028;-73
2022/06/01 00:29:51;;;;;;;1.33;1.17;;;13.60;61.30;;;;;;4982065;28;20100;-73
2022/06/01 00:32:17;;;;;;;1.70;1.20;;;13.50;61.30;;;;;;5005210;28;20025;-74
2022/06/01 00:34:43;;;;;;;1.95;1.05;;;13.40;61.50;;;;;;5021475;28;20039;-73
2022/06/01 00:37:09;;;;;;;1.98;1.45;;;13.40;61.60;;;;;;4998297;28;20097;-73
2022/06/01 00:39:35;;;;;;;1.95;1.35;;;13.40;61.90;;;;;;5034401;28;20070;-73
2022/06/01 00:42:16;;;;;;;2.85;1.55;;;13.30;62.00;;;;;;5030038;28;20041;-74
2022/06/01 00:44:42;;;;;;;2.08;1.38;;;13.20;62.50;;;;;;5016259;28;20032;-75
2022/06/01 00:47:08;;;;;;;1.77;1.20;;;13.20;62.10;;;;;;5047273;28;20032;-73
2022/06/01 00:49:34;;;;;;;2.20;1.42;;;13.10;62.30;;;;;;5022052;28;20057;-73
2022/06/01 00:52:00;;;;;;;3.88;1.73;;;13.00;62.40;;;;;;5017040;28;20091;-73
2022/06/01 00:54:26;;;;;;;2.58;1.40;;;13.00;62.70;;;;;;5016553;28;20167;-73
2022/06/01 00:56:54;;;;;;;1.50;1.33;;;13.00;62.80;;;;;;5005458;28;20049;-73
2022/06/01 00:59:23;;;;;;;1.65;1.45;;;12.90;62.90;;;;;;5005536;28;20032;-73
2022/06/01 01:01:54;;;;;;;1.40;1.30;;;12.80;63.00;;;;;;4996175;28;20521;-73
2022/06/01 01:04:19;;;;;;;2.30;1.30;;;12.80;63.30;;;;;;5008775;28;20037;-73
2022/06/01 01:06:45;;;;;;;1.35;1.25;;;12.80;63.10;;;;;;4988320;28;20045;-73
2022/06/01 01:09:11;;;;;;;2.42;1.60;;;12.80;63.20;;;;;;5006293;28;20052;-72
2022/06/01 01:11:51;;;;;;;1.30;1.20;;;12.70;63.20;;;;;;5012469;28;20072;-73
2022/06/01 01:14:20;;;;;;;1.33;1.20;;;12.70;63.60;;;;;;5008885;28;20126;-72
2022/06/01 01:16:49;;;;;;;1.67;1.42;;;12.60;63.30;;;;;;5002383;28;20266;-73
2022/06/01 01:19:33;;;;;;;1.52;1.20;;;12.50;63.40;;;;;;5029314;28;20041;-72
2022/06/01 01:22:26;;;;;;;2.35;1.60;;;12.50;64.00;;;;;;5007338;28;20121;-73
2022/06/01 01:25:11;;;;;;;3.22;1.80;;;12.40;63.90;;;;;;5035293;28;20133;-72
2022/06/01 01:27:36;;;;;;;1.70;1.33;;;12.40;64.00;;;;;;5040484;28;20103;-72
2022/06/01 01:30:24;;;;;;;1.73;1.27;;;12.40;63.90;;;;;;5019719;28;20124;-72
2022/06/01 01:32:50;;;;;;;1.52;1.40;;;12.30;64.00;;;;;;5004826;28;20029;-72
2022/06/01 01:35:15;;;;;;;2.95;1.40;;;12.40;64.00;;;;;;5024140;28;20083;-72
2022/06/01 01:37:41;;;;;;;1.40;1.23;;;12.40;64.20;;;;;;5021929;28;20028;-72
2022/06/01 01:40:07;;;;;;;2.25;1.25;;;12.30;64.20;;;;;;5004732;28;20108;-72
2022/06/01 01:42:32;;;;;;;1.40;1.27;;;12.30;64.40;;;;;;5014871;28;20043;-72
2022/06/01 01:45:26;;;;;;;1.92;1.50;;;12.30;64.50;;;;;;5017997;28;20033;-72
2022/06/01 01:47:51;;;;;;;2.05;1.80;;;12.30;64.60;;;;;;5016838;28;20159;-72
2022/06/01 01:50:18;;;;;;;2.20;1.60;;;12.20;64.60;;;;;;5003844;28;20033;-72
2022/06/01 01:52:44;;;;;;;2.05;1.20;;;12.20;64.70;;;;;;5005012;28;20388;-72
2022/06/01 01:55:20;;;;;;;1.63;1.40;;;12.20;64.80;;;;;;5039775;28;20029;-73
2022/06/01 01:58:09;;;;;;;3.22;1.60;;;12.10;64.70;;;;;;4999396;28;20099;-72
2022/06/01 02:00:41;;;;;;;2.13;1.50;;;12.10;65.00;;;;;;4990486;28;20021;-72
2022/06/01 02:03:06;;;;;;;;;;;12.10;65.00;;;;;;5004198;28;20029;-74
2022/06/01 02:06:03;;;;;;;1.40;1.30;;;12.10;64.60;;;;;;5037001;28;19998;-72
2022/06/01 02:08:30;;;;;;;2.97;1.40;;;12.00;64.90;;;;;;5029913;28;20726;-72
2022/06/01 02:13:48;;;;;;;1.95;1.35;;;11.90;65.30;;;;;;5030328;28;20124;-72
2022/06/01 02:16:14;;;;;;;3.83;1.77;;;11.90;65.00;;;;;;5036932;28;20123;-72
2022/06/01 02:18:44;;;;;;;1.60;1.40;;;11.80;65.10;;;;;;5001671;28;20504;-72
2022/06/01 02:21:13;;;;;;;2.78;1.63;;;11.80;65.50;;;;;;5015993;28;20040;-71
2022/06/01 02:23:39;;;;;;;1.52;1.42;;;11.80;65.60;;;;;;5022679;28;20107;-72
2022/06/01 02:26:04;;;;;;;2.08;1.60;;;11.70;65.50;;;;;;5009837;28;20049;-72
2022/06/01 02:28:30;;;;;;;1.77;1.52;;;11.60;65.50;;;;;;5021328;28;20038;-72
2022/06/01 02:30:55;;;;;;;2.10;1.33;;;11.60;65.70;;;;;;5008821;28;20025;-72
2022/06/01 02:33:23;;;;;;;2.95;1.70;;;11.60;65.90;;;;;;5003157;28;20029;-72
2022/06/01 02:35:51;;;;;;;1.92;1.75;;;11.60;66.00;;;;;;5023263;28;20033;-73
2022/06/01 02:38:31;;;;;;;1.83;1.63;;;11.50;65.90;;;;;;5036393;28;20497;-71
2022/06/01 02:40:56;;;;;;;1.60;1.50;;;11.50;66.50;;;;;;5002930;28;20041;-72
2022/06/01 02:43:23;;;;;;;1.95;1.40;;;11.40;66.00;;;;;;4994705;28;20075;-72
2022/06/01 02:45:48;;;;;;;2.72;1.63;;;11.40;66.10;;;;;;5019131;28;20098;-72
2022/06/01 02:48:14;;;;;;;2.08;1.88;;;11.40;66.30;;;;;;5022126;28;20033;-72
2022/06/01 02:50:40;;;;;;;1.45;1.35;;;11.30;66.20;;;;;;5022600;28;20082;-71
2022/06/01 02:53:06;;;;;;;1.75;1.50;;;11.20;66.40;;;;;;5012552;28;20047;-71
2022/06/01 02:55:32;;;;;;;1.80;1.58;;;11.20;66.50;;;;;;5028784;28;20045;-71
2022/06/01 02:57:57;;;;;;;2.47;1.25;;;11.20;66.70;;;;;;5032390;28;20025;-72
2022/06/01 03:00:26;;;;;;;2.92;2.00;;;11.20;66.80;;;;;;4996571;28;20025;-72
2022/06/01 03:02:53;;;;;;;1.67;1.58;;;11.10;66.80;;;;;;5011061;28;20079;-72
2022/06/01 03:05:22;;;;;;;2.47;1.40;;;11.10;66.90;;;;;;5023551;28;20029;-72
2022/06/01 03:07:47;;;;;;;3.00;1.65;;;11.00;67.10;;;;;;5024433;28;20026;-73
2022/06/01 03:10:13;;;;;;;2.30;1.70;;;10.90;67.20;;;;;;5021341;28;20500;-74
2022/06/01 03:12:39;;;;;;;2.95;1.50;;;10.90;67.40;;;;;;5021762;28;20683;-73
2022/06/01 03:15:06;;;;;;;1.92;1.52;;;10.90;67.50;;;;;;5009506;28;20041;-76
2022/06/01 03:17:31;;;;;;;2.17;1.60;;;10.80;67.60;;;;;;5039522;28;20040;-73
2022/06/01 03:19:57;;;;;;;2.03;1.60;;;10.80;67.60;;;;;;5012346;28;20433;-74
2022/06/01 03:22:23;;;;;;;2.08;1.45;;;10.90;67.80;;;;;;5003390;28;20082;-73
2022/06/01 03:24:49;;;;;;;2.15;1.63;;;10.90;67.70;;;;;;5005472;28;20036;-73
2022/06/01 03:27:14;;;;;;;1.35;1.25;;;10.90;67.70;;;;;;5025305;28;20680;-74
2022/06/01 03:29:40;;;;;;;2.20;1.63;;;10.90;67.70;;;;;;5031302;28;20059;-73
2022/06/01 03:32:06;;;;;;;1.60;1.33;;;10.90;67.80;;;;;;5019231;28;20071;-73
2022/06/01 03:34:32;;;;;;;2.30;1.77;;;10.90;67.90;;;;;;5003711;28;20584;-74
2022/06/01 03:36:57;;;;;;;2.55;1.85;;;10.80;68.00;;;;;;5026458;28;20095;-76
2022/06/01 03:39:23;;;;;;;3.45;1.70;;;10.90;68.20;;;;;;5018458;28;20207;-75
2022/06/01 03:41:48;;;;;;;4.07;1.60;;;10.80;68.10;;;;;;5037515;28;20037;-73
2022/06/01 03:47:05;;;;;;;1.80;1.58;;;10.90;68.30;;;;;;5044387;28;20075;-73
2022/06/01 03:49:32;;;;;;;1.65;1.48;;;10.90;68.60;;;;;;5022413;28;20033;-72
2022/06/01 03:51:58;;;;;;;2.83;1.60;;;10.90;68.30;;;;;;5017943;28;20120;-73
2022/06/01 03:54:24;;;;;;;2.20;1.77;;;10.90;68.50;;;;;;5017789;28;20029;-73
2022/06/01 03:56:49;;;;;;;1.60;1.50;;;10.90;68.60;;;;;;5026333;28;20033;-73
2022/06/01 03:59:15;;;;;;;3.28;1.70;;;10.90;68.80;;;;;;5018507;28;20043;-72
2022/06/01 04:01:40;;;;;;;1.65;1.50;;;10.90;68.90;;;;;;5021075;28;20047;-72
2022/06/01 04:04:06;;;;;;;3.05;2.03;;;10.90;69.00;;;;;;5018465;28;20308;-72
2022/06/01 04:06:31;;;;;;;2.65;1.95;;;11.00;69.00;;;;;;5022601;28;20032;-73
2022/06/01 04:08:57;;;;;;;1.88;1.67;;;11.00;69.20;;;;;;5021457;28;20029;-73
2022/06/01 04:11:22;;;;;;;3.55;1.92;;;11.00;69.20;;;;;;5001221;28;20055;-73
2022/06/01 04:13:48;;;;;;;2.72;2.10;;;11.00;69.10;;;;;;5012415;28;20559;-73
2022/06/01 04:16:15;;;;;;;2.70;2.00;;;11.00;69.20;;;;;;5018702;28;20033;-73
2022/06/01 04:18:40;;;;;;;7.15;2.08;;;11.00;69.30;;;;;;5027534;28;20128;-72
2022/06/01 04:21:06;;;;;;;6.10;1.95;;;11.00;69.30;;;;;;5017289;28;20494;-73
2022/06/01 04:23:33;;;;;;;4.10;2.17;;;11.10;69.30;;;;;;5019560;28;20037;-71
2022/06/01 04:25:58;;;;;;;2.15;1.92;;;11.10;69.30;;;;;;4998727;28;20054;-71
2022/06/01 04:28:24;;;;;;;2.50;1.60;;;11.10;69.60;;;;;;5012566;28;20756;-71
2022/06/01 04:30:49;;;;;;;1.92;1.67;;;11.20;69.50;;;;;;5039180;28;20126;-73
2022/06/01 04:33:15;;;;;;;1.75;1.60;;;11.20;69.60;;;;;;5018321;28;20037;-74
2022/06/01 04:35:40;;;;;;;1.92;1.52;;;11.20;69.60;;;;;;5040316;28;20068;-74
2022/06/01 04:38:14;;;;;;;1.88;1.70;;;11.20;69.50;;;;;;5019384;28;20067;-73
2022/06/01 04:40:48;;;;;;;2.00;1.77;;;11.30;69.60;;;;;;5022153;28;20112;-73
2022/06/01 04:43:20;;;;;;;2.95;2.03;;;11.30;69.80;;;;;;5005773;28;20037;-74
2022/06/01 04:45:45;;;;;;;3.53;1.95;;;11.30;69.80;;;;;;5018150;28;20117;-74
2022/06/01 04:48:11;;;;;;;2.30;1.80;;;11.30;69.70;;;;;;5019110;28;20509;-73
2022/06/01 04:50:42;;;;;;;2.78;1.73;;;11.30;69.70;;;;;;5015803;28;20448;-73
2022/06/01 04:53:14;;;;;;;2.97;2.17;;;11.40;69.90;;;;;;5026600;28;20033;-73
2022/06/01 04:55:41;;;;;;;2.67;2.03;;;11.40;70.10;;;;;;5018374;28;20029;-73
2022/06/01 04:58:06;;;;;;;4.45;2.08;;;11.40;70.10;;;;;;5017263;28;20059;-73
2022/06/01 05:00:33;;;;;;;4.07;3.45;;;11.50;70.20;;;;;;5026431;28;20508;-74
2022/06/01 05:02:59;;;;;;;6.00;2.85;;;11.50;70.40;;;;;;4996538;28;20757;-73
2022/06/01 05:05:25;;;;;;;2.78;2.08;;;11.50;70.50;;;;;;5019788;28;20082;-74
2022/06/01 05:07:50;;;;;;;4.00;3.58;;;11.50;70.50;;;;;;5013345;28;20123;-73
2022/06/01 05:10:16;;;;;;;4.68;3.50;;;11.50;70.60;;;;;;5015143;28;20036;-73
2022/06/01 05:12:41;;;;;;;6.32;4.65;;;11.60;70.90;;;;;;5016083;28;20409;-74
2022/06/01 05:15:08;;;;;;;6.00;3.97;;;11.60;70.90;;;;;;5008004;28;20664;-73
2022/06/01 05:17:33;;;;;;;5.93;3.88;;;11.60;70.90;;;;;;5017828;28;20147;-74
2022/06/01 05:19:59;;;;;;;6.78;3.38;;;11.70;71.00;;;;;;5016084;28;20029;-74
2022/06/01 05:22:25;;;;;;;4.43;3.92;;;11.70;71.00;;;;;;5007746;28;20041;-74
2022/06/01 05:24:50;;;;;;;5.45;2.83;;;11.80;71.00;;;;;;5023640;28;20080;-75
2022/06/01 05:27:16;;;;;;;3.92;2.53;;;11.80;71.10;;;;;;5004817;28;20027;-74
2022/06/01 05:29:41;;;;;;;3.25;2.95;;;11.90;70.90;;;;;;5004107;28;20076;-75
2022/06/01 05:32:07;;;;;;;6.03;3.50;;;11.90;70.80;;;;;;5036575;28;20025;-73
2022/06/01 05:34:33;;;;;;;3.42;3.03;;;12.00;71.20;;;;;;5010685;28;20036;-75
2022/06/01 05:36:58;;;;;;;4.97;3.28;;;12.00;71.10;;;;;;5019362;28;20044;-74
2022/06/01 05:39:24;;;;;;;3.92;3.15;;;12.00;71.10;;;;;;5034388;28;20033;-75
2022/06/01 05:41:50;;;;;;;3.13;2.67;;;12.00;71.00;;;;;;5016811;28;20443;-75
2022/06/01 05:44:16;;;;;;;3.30;2.63;;;12.10;71.90;;;;;;5012306;28;20040;-74
2022/06/01 05:46:42;;;;;;;4.53;3.05;;;12.20;71.20;;;;;;5029990;28;20397;-74
2022/06/01 05:49:07;;;;;;;5.95;4.70;;;12.20;71.10;;;;;;5036807;28;20442;-74
2022/06/01 05:51:35;;;;;;;5.88;3.38;;;12.20;71.00;;;;;;5001183;28;20485;-73
2022/06/01 05:54:01;;;;;;;13.85;7.10;;;12.30;71.00;;;;;;5030632;28;20091;-75
2022/06/01 05:56:27;;;;;;;7.30;6.47;;;12.30;70.80;;;;;;5019995;28;20034;-74
2022/06/01 05:58:52;;;;;;;8.30;5.80;;;12.40;70.80;;;;;;5005179;28;20068;-74
2022/06/01 06:01:21;;;;;;;7.45;6.60;;;12.40;70.70;;;;;;5019202;28;20035;-74
2022/06/01 06:03:47;;;;;;;10.70;8.23;;;12.40;70.60;;;;;;5038375;28;20040;-74
2022/06/01 06:06:12;;;;;;;11.30;7.35;;;12.40;70.80;;;;;;5020250;28;20043;-74
2022/06/01 06:08:46;;;;;;;7.68;6.88;;;12.50;70.80;;;;;;5004483;28;20823;-76
2022/06/01 06:11:13;;;;;;;9.15;6.03;;;12.50;71.00;;;;;;4994413;28;20040;-74
2022/06/01 06:13:38;;;;;;;8.80;7.10;;;12.60;70.80;;;;;;4988364;28;20493;-73
2022/06/01 06:16:04;;;;;;;9.57;5.90;;;12.70;70.70;;;;;;5022241;28;20050;-74
2022/06/01 06:18:30;;;;;;;12.25;7.63;;;12.80;70.60;;;;;;5010757;28;20900;-74
2022/06/01 06:20:55;;;;;;;11.57;7.07;;;12.90;70.60;;;;;;5015456;28;20645;-73
2022/06/01 06:23:21;;;;;;;6.60;5.10;;;13.00;70.40;;;;;;5009610;28;20029;-73
2022/06/01 06:25:47;;;;;;;7.82;5.15;;;13.10;70.30;;;;;;5018402;28;20685;-75
2022/06/01 06:28:12;;;;;;;8.30;5.40;;;13.10;70.00;;;;;;5018255;28;20041;-74
2022/06/01 06:30:38;;;;;;;9.27;6.80;;;13.20;69.80;;;;;;4990788;28;20032;-73
2022/06/01 06:33:05;;;;;;;8.88;6.35;;;13.30;69.90;;;;;;5017405;28;20064;-75
2022/06/01 06:35:30;;;;;;;6.05;4.60;;;13.30;69.70;;;;;;5026326;28;20652;-74
2022/06/01 06:37:56;;;;;;;9.52;4.60;;;13.40;69.70;;;;;;5008703;28;20123;-74
2022/06/01 06:40:21;;;;;;;6.07;3.83;;;13.50;69.70;;;;;;5003296;28;20095;-74
2022/06/01 06:42:47;;;;;;;6.53;4.45;;;13.50;69.70;;;;;;5013978;28;20535;-73
2022/06/01 06:45:12;;;;;;;9.27;4.35;;;13.60;69.70;;;;;;5008845;28;20421;-73
2022/06/01 06:47:38;;;;;;;12.45;5.65;;;13.70;69.70;;;;;;5019463;28;20516;-73
2022/06/01 06:50:05;;;;;;;7.65;4.47;;;13.80;69.60;;;;;;5015628;28;20042;-74
2022/06/01 06:52:31;;;;;;;17.02;8.25;;;14.00;69.40;;;;;;5018454;28;20608;-73
2022/06/01 06:54:56;;;;;;;7.32;4.55;;;14.10;69.20;;;;;;5001870;28;20033;-73
2022/06/01 06:57:22;;;;;;;11.07;4.50;;;14.20;69.10;;;;;;5026746;28;20055;-74
2022/06/01 06:59:50;;;;;;;6.20;3.75;;;14.40;69.00;;;;;;5024847;28;20044;-74
2022/06/01 07:02:16;;;;;;;10.13;3.72;;;14.60;68.80;;;;;;5004214;28;20090;-74
2022/06/01 07:04:42;;;;;;;9.50;4.70;;;14.80;68.60;;;;;;5036199;28;20694;-73
2022/06/01 07:07:08;;;;;;;6.75;4.05;;;15.00;68.40;;;;;;5033465;28;20063;-75
2022/06/01 07:09:34;;;;;;;4.57;3.42;;;15.10;68.00;;;;;;5019080;28;20525;-73
2022/06/01 07:11:59;;;;;;;4.75;3.00;;;15.20;67.90;;;;;;5015336;28;20043;-75
2022/06/01 07:14:25;;;;;;;4.47;2.67;;;15.40;67.80;;;;;;5031541;28;20072;-74
2022/06/01 07:16:50;;;;;;;7.88;3.33;;;15.60;67.40;;;;;;5018253;28;20417;-74
2022/06/01 07:19:16;;;;;;;5.90;3.70;;;15.70;67.20;;;;;;5029661;28;20607;-74
2022/06/01 07:21:42;;;;;;;8.40;3.50;;;15.90;67.70;;;;;;5027850;28;20103;-75
2022/06/01 07:24:08;;;;;;;5.95;3.25;;;16.10;66.60;;;;;;5020584;28;20144;-74
2022/06/01 07:26:38;;;;;;;4.53;3.60;;;16.20;66.20;;;;;;5012235;28;20166;-75
2022/06/01 07:29:04;;;;;;;12.18;3.08;;;16.40;65.90;;;;;;5009579;28;20038;-75
2022/06/01 07:31:30;;;;;;;8.40;2.88;;;16.50;65.60;;;;;;5011822;28;20087;-74
2022/06/01 07:33:56;;;;;;;8.75;2.90;;;16.70;65.50;;;;;;5010169;28;20033;-74
2022/06/01 07:36:21;;;;;;;7.22;3.33;;;16.90;65.10;;;;;;5015229;28;20109;-75
2022/06/01 07:43:05;;;;;;;8.25;2.83;;;17.40;64.10;;;;;;5025085;28;20087;-74
2022/06/01 07:44:40;;;;;;;8.20;2.88;;;17.60;63.50;;;;;;5013435;28;20045;-75
2022/06/01 07:47:06;;;;;;;8.80;3.10;;;17.80;63.10;;;;;;4998544;28;20041;-75
2022/06/01 07:49:31;;;;;;;7.85;2.92;;;18.00;62.70;;;;;;5014666;28;20587;-75
2022/06/01 07:51:57;;;;;;;3.85;2.60;;;18.20;62.30;;;;;;5011081;28;20072;-74
2022/06/01 07:54:23;;;;;;;7.75;2.55;;;18.40;61.90;;;;;;5002650;28;20114;-75
2022/06/01 07:56:48;;;;;;;3.42;2.83;;;18.70;61.50;;;;;;5023515;28;20033;-75
2022/06/01 07:59:14;;;;;;;6.03;2.47;;;18.90;60.90;;;;;;5009005;28;20045;-74
2022/06/01 08:01:39;;;;;;;3.47;1.92;;;19.10;60.40;;;;;;4984989;28;20609;-75
2022/06/01 08:04:05;;;;;;;4.25;2.05;;;19.30;59.90;;;;;;5000024;28;20036;-74
2022/06/01 08:06:32;;;;;;;2.63;1.45;;;19.50;59.30;;;;;;5008608;28;20063;-75
2022/06/01 08:08:57;;;;;;;3.65;1.30;;;19.70;58.70;;;;;;5007509;28;20069;-74
2022/06/01 08:14:08;;;;;;;3.67;1.38;;;20.10;57.40;;;;;;5027016;28;20044;-75
2022/06/01 08:16:34;;;;;;;2.47;1.33;;;20.20;56.90;;;;;;5006588;28;20041;-75
2022/06/01 08:18:59;;;;;;;5.57;1.30;;;20.40;56.30;;;;;;5009972;28;20111;-75
2022/06/01 08:21:25;;;;;;;4.20;1.35;;;20.60;55.90;;;;;;5041392;28;20053;-75
2022/06/01 08:23:50;;;;;;;1.30;1.20;;;20.80;55.40;;;;;;5043902;28;20093;-74
2022/06/01 08:26:16;;;;;;;1.77;1.20;;;21.00;54.80;;;;;;5021389;28;20037;-75
2022/06/01 08:28:41;;;;;;;2.90;1.40;;;21.20;54.40;;;;;;5039654;28;20037;-75
2022/06/01 08:31:07;;;;;;;3.42;1.38;;;21.40;53.90;;;;;;5041400;28;20053;-74
2022/06/01 08:33:34;;;;;;;3.75;0.95;;;21.50;53.20;;;;;;5009753;28;20056;-75
2022/06/01 08:36:00;;;;;;;1.73;1.30;;;21.70;52.80;;;;;;5017867;28;20021;-75
2022/06/01 08:38:25;;;;;;;1.08;1.00;;;21.90;52.10;;;;;;5013790;28;20055;-75
2022/06/01 08:40:59;;;;;;;1.00;0.90;;;22.00;52.40;;;;;;5009158;28;20102;-75
2022/06/01 08:43:36;;;;;;;3.90;1.13;;;22.20;51.10;;;;;;5006998;28;20052;-75
2022/06/01 08:46:01;;;;;;;2.58;1.10;;;22.30;50.20;;;;;;5006480;28;20051;-75
2022/06/01 08:48:54;;;;;;;0.80;0.75;;;22.50;50.50;;;;;;5017383;28;20084;-75
2022/06/01 08:51:23;;;;;;;2.28;1.02;;;22.70;48.80;;;;;;5007619;28;20593;-76
2022/06/01 08:53:48;;;;;;;2.20;0.90;;;22.80;49.40;;;;;;5013663;28;20123;-75
2022/06/01 08:56:15;;;;;;;3.28;0.90;;;23.00;48.90;;;;;;4996730;28;20159;-75
2022/06/01 08:58:42;;;;;;;1.70;0.88;;;23.10;48.30;;;;;;5023812;28;20540;-75
2022/06/01 09:01:33;;;;;;;1.77;0.77;;;23.20;47.90;;;;;;5030747;28;20068;-75
2022/06/01 09:04:03;;;;;;;2.60;0.90;;;23.40;47.10;;;;;;5011533;28;20040;-75
2022/06/01 09:06:34;;;;;;;1.33;0.77;;;23.60;46.70;;;;;;5019845;28;20040;-75
2022/06/01 09:09:12;;;;;;;3.03;0.90;;;23.80;46.60;;;;;;5020962;28;20032;-76
2022/06/01 09:11:38;;;;;;;1.23;0.70;;;24.00;46.00;;;;;;5029038;28;20037;-74
2022/06/01 09:14:21;;;;;;;1.27;0.70;;;24.10;46.80;;;;;;5005834;28;20035;-75
2022/06/01 09:16:49;;;;;;;2.47;0.70;;;24.30;44.80;;;;;;5030987;28;20033;-76
2022/06/01 09:19:19;;;;;;;0.70;0.70;;;24.50;45.10;;;;;;5035934;28;20036;-75
2022/06/01 09:24:38;;;;;;;1.10;0.75;;;24.90;43.70;;;;;;5027720;28;20128;-75
2022/06/01 09:27:06;;;;;;;1.58;0.85;;;25.10;44.30;;;;;;5021576;28;20567;-75
2022/06/01 09:29:35;;;;;;;4.15;0.75;;;25.30;43.80;;;;;;5020831;28;20065;-75
2022/06/01 09:32:08;;;;;;;1.98;0.80;;;25.40;43.10;;;;;;5003482;28;20036;-75
2022/06/01 09:34:45;;;;;;;1.55;0.80;;;25.60;42.90;;;;;;5003483;28;20040;-76
2022/06/01 09:37:13;;;;;;;0.93;0.70;;;25.80;42.30;;;;;;5023476;28;20065;-76
2022/06/01 09:39:53;;;;;;;3.50;0.90;;;26.00;42.20;;;;;;5014247;28;20033;-76
2022/06/01 09:42:25;;;;;;;1.10;0.55;;;26.10;41.20;;;;;;5025299;28;20037;-74
2022/06/01 09:44:51;;;;;;;3.67;0.80;;;26.20;41.40;;;;;;4997732;28;20029;-75
2022/06/01 09:47:36;;;;;;;1.45;0.70;;;26.30;41.20;;;;;;5015776;28;20036;-76
2022/06/01 09:50:03;;;;;;;1.95;0.93;;;26.40;39.90;;;;;;5030336;28;20033;-74
2022/06/01 09:52:57;;;;;;;0.75;0.70;;;26.50;40.70;;;;;;5006390;28;20051;-75
2022/06/01 09:55:24;;;;;;;2.17;0.70;;;26.60;40.00;;;;;;4975998;28;20437;-76
2022/06/01 09:58:09;;;;;;;2.03;0.80;;;26.60;40.00;;;;;;5038970;28;20044;-76
2022/06/01 10:06:30;;;;;;;3.13;1.00;;;26.90;39.40;;;;;;5034916;28;20035;-74
2022/06/01 10:09:00;;;;;;;1.50;0.80;;;27.00;38.20;;;;;;5023905;28;20040;-74
2022/06/01 10:11:32;;;;;;;4.47;0.88;;;27.20;38.70;;;;;;5027686;28;20067;-75
2022/06/01 10:14:12;;;;;;;3.28;0.73;;;27.20;38.50;;;;;;5003834;28;20552;-75
2022/06/01 10:17:00;;;;;;;1.30;0.70;;;27.30;38.20;;;;;;5021661;28;20555;-75
2022/06/01 10:19:34;;;;;;;1.70;0.90;;;27.40;38.30;;;;;;5028030;28;20074;-74
2022/06/01 10:22:09;;;;;;;2.25;0.65;;;27.60;37.50;;;;;;5014426;28;20091;-75
2022/06/01 10:24:38;;;;;;;1.98;0.65;;;27.70;37.60;;;;;;5012371;28;20041;-76
2022/06/01 10:27:04;;;;;;;3.55;0.70;;;27.60;37.40;;;;;;5024811;28;20033;-75
2022/06/01 10:29:39;;;;;;;2.28;0.63;;;27.70;37.90;;;;;;5005091;28;20525;-76
2022/06/01 10:32:10;;;;;;;2.30;1.00;;;27.80;37.30;;;;;;5023787;28;20037;-76
2022/06/01 10:34:57;;;;;;;2.15;0.80;;;28.00;37.00;;;;;;5028571;28;20041;-75
2022/06/01 10:37:34;;;;;;;2.15;1.10;;;28.00;36.10;;;;;;5029034;28;20131;-76
2022/06/01 10:40:07;;;;;;;1.02;0.70;;;28.00;36.60;;;;;;5006826;28;20469;-75
2022/06/01 10:45:23;;;;;;;1.58;0.77;;;28.10;36.20;;;;;;5039614;28;20473;-75
2022/06/01 10:47:58;;;;;;;1.88;0.73;;;28.20;36.40;;;;;;5003653;28;20217;-76
2022/06/01 10:50:27;;;;;;;6.60;1.00;;;28.30;35.90;;;;;;5042406;28;20729;-76
2022/06/01 10:53:03;;;;;;;1.67;0.82;;;28.40;36.10;;;;;;5015591;28;20624;-75
2022/06/01 10:55:40;;;;;;;4.40;0.80;;;28.30;35.50;;;;;;5043168;28;20087;-75
2022/06/01 10:58:06;;;;;;;2.58;1.00;;;28.30;35.70;;;;;;5012044;28;20455;-74
2022/06/01 11:00:38;;;;;;;0.70;0.63;;;28.30;35.80;;;;;;4998040;28;20578;-75
2022/06/01 11:03:08;;;;;;;2.58;0.90;;;28.20;35.50;;;;;;5012159;28;20030;-75
2022/06/01 11:05:59;;;;;;;2.05;0.80;;;28.20;35.50;;;;;;5044892;28;20107;-76
2022/06/01 11:09:02;;;;;;;4.50;1.05;;;28.10;35.40;;;;;;5030763;28;20034;-75
2022/06/01 11:11:33;;;;;;;3.50;1.10;;;28.10;34.80;;;;;;5042602;28;20040;-76
2022/06/01 11:14:05;;;;;;;1.08;0.70;;;28.10;35.30;;;;;;5046992;28;20029;-75
2022/06/01 11:16:30;;;;;;;1.00;0.80;;;28.20;35.30;;;;;;5041804;28;20030;-76
2022/06/01 11:19:10;;;;;;;3.05;0.90;;;28.10;35.20;;;;;;5021975;28;20042;-75
2022/06/01 11:21:55;;;;;;;3.13;0.70;;;28.00;34.90;;;;;;4991168;28;20065;-75
2022/06/01 11:24:36;;;;;;;2.70;0.80;;;28.10;34.70;;;;;;5014417;28;20105;-74
2022/06/01 11:27:18;;;;;;;6.35;0.80;;;28.20;34.80;;;;;;4994399;28;20105;-75
2022/06/01 11:30:11;;;;;;;4.05;1.00;;;28.40;34.40;;;;;;5019278;28;20049;-75
2022/06/01 11:32:51;;;;;;;3.65;0.82;;;28.60;34.30;;;;;;4993290;28;20100;-76
2022/06/01 11:35:30;;;;;;;1.10;0.93;;;28.70;34.60;;;;;;5015577;28;20425;-75
2022/06/01 11:38:05;;;;;;;1.70;0.80;;;28.90;34.20;;;;;;5002893;28;20041;-76
2022/06/01 11:40:45;;;;;;;1.00;0.57;;;29.10;34.60;;;;;;5026201;28;20048;-76
2022/06/01 11:43:30;;;;;;;1.60;0.73;;;29.30;33.80;;;;;;4977944;28;20037;-76
2022/06/01 11:46:23;;;;;;;1.05;0.77;;;29.40;33.50;;;;;;4999982;28;20272;-75
2022/06/01 11:48:55;;;;;;;2.38;0.80;;;29.50;33.70;;;;;;5005556;28;20094;-75
2022/06/01 11:51:36;;;;;;;2.60;0.70;;;29.70;33.70;;;;;;4996042;28;20034;-76
2022/06/01 11:54:05;;;;;;;2.25;0.60;;;29.80;33.60;;;;;;5008454;28;20041;-75
2022/06/01 11:56:34;;;;;;;2.13;0.50;;;29.90;33.40;;;;;;5021048;28;20037;-75
2022/06/01 11:59:16;;;;;;;2.15;0.75;;;30.00;33.20;;;;;;5009745;28;20518;-74
2022/06/01 12:01:41;;;;;;;1.25;0.60;;;30.10;32.70;;;;;;4967572;28;20144;-74
2022/06/01 12:04:17;;;;;;;1.42;0.90;;;30.30;32.70;;;;;;5038857;28;20104;-75
2022/06/01 12:06:45;;;;;;;1.50;0.80;;;30.40;32.50;;;;;;5021051;28;20395;-75
2022/06/01 12:09:24;;;;;;;2.83;0.55;;;30.50;32.40;;;;;;4989441;28;20450;-75
2022/06/01 12:11:49;;;;;;;1.23;0.93;;;30.50;31.90;;;;;;5007447;28;20064;-75
2022/06/01 12:14:24;;;;;;;2.17;0.70;;;30.60;32.10;;;;;;4998060;28;20064;-76
2022/06/01 12:17:17;;;;;;;1.10;0.75;;;30.60;31.50;;;;;;5013967;28;20037;-75
2022/06/01 12:19:47;;;;;;;0.73;0.63;;;30.50;30.70;;;;;;5014333;28;20052;-75
2022/06/01 12:28:36;;;;;;;2.08;0.60;;;30.40;31.10;;;;;;5025542;28;20135;-76
2022/06/01 12:31:19;;;;;;;1.10;0.60;;;30.40;31.70;;;;;;5023149;28;20038;-76
2022/06/01 12:34:03;;;;;;;1.80;0.60;;;30.60;31.10;;;;;;4996658;28;21024;-75
2022/06/01 12:36:54;;;;;;;3.35;0.60;;;30.70;30.70;;;;;;5050729;28;20033;-75
2022/06/01 12:39:26;;;;;;;1.27;0.73;;;30.80;30.40;;;;;;4998332;28;20037;-75
2022/06/01 12:41:54;;;;;;;1.23;0.65;;;30.90;31.10;;;;;;5008153;28;20033;-75
2022/06/01 12:44:20;;;;;;;2.58;0.77;;;31.00;30.90;;;;;;5007551;28;20033;-76
2022/06/01 12:46:48;;;;;;;1.15;0.60;;;31.00;30.60;;;;;;5012251;28;20033;-76
2022/06/01 12:49:24;;;;;;;1.58;0.50;;;31.00;30.40;;;;;;5020917;28;20037;-75
2022/06/01 12:51:51;;;;;;;4.70;0.68;;;31.10;30.20;;;;;;5024714;28;20559;-75
2022/06/01 12:54:36;;;;;;;4.22;0.63;;;31.20;30.40;;;;;;5018200;28;20052;-75
2022/06/01 12:57:03;;;;;;;3.80;0.63;;;31.20;29.80;;;;;;5031670;28;20029;-76
2022/06/01 12:59:30;;;;;;;2.72;0.77;;;31.20;30.20;;;;;;5011083;28;20056;-75
2022/06/01 13:02:00;;;;;;;1.15;0.60;;;31.30;30.20;;;;;;5012282;28;20059;-75
2022/06/01 13:04:25;;;;;;;1.38;0.65;;;31.40;30.00;;;;;;5012252;28;20104;-74
2022/06/01 13:06:51;;;;;;;0.82;0.52;;;31.50;30.00;;;;;;5013289;28;20122;-76
2022/06/01 13:09:27;;;;;;;2.42;0.88;;;31.50;29.80;;;;;;5015864;28;20469;-76
2022/06/01 13:11:57;;;;;;;1.40;0.60;;;31.60;29.70;;;;;;5028131;28;20032;-75
2022/06/01 13:14:25;;;;;;;2.63;0.70;;;31.60;29.50;;;;;;5024215;28;20037;-75
2022/06/01 13:16:51;;;;;;;1.67;0.60;;;31.80;29.70;;;;;;5003250;28;20403;-75
2022/06/01 13:19:20;;;;;;;0.85;0.40;;;31.90;29.60;;;;;;5038493;28;20045;-75
2022/06/01 13:21:49;;;;;;;0.73;0.60;;;31.90;29.40;;;;;;5044845;28;20053;-75
2022/06/01 13:24:15;;;;;;;2.65;0.45;;;32.00;29.40;;;;;;5011816;28;20047;-75
2022/06/01 13:26:45;;;;;;;0.90;0.57;;;32.10;29.40;;;;;;5006998;28;20111;-75
2022/06/01 13:29:32;;;;;;;0.68;0.50;;;32.20;29.10;;;;;;5024328;28;20166;-75